»·PEaware :: N232KW KVNY-KSNA

N232KW :: KVNY-KSNA

FLIGHT INFORMATION

Flight Status: Arrived
Operator: Privately registered:
United States
More flights under this callsign
Pilot: Sally S. (18014)
Aircraft: CESSNA 172 SKYHAWK
(C172)
More flights by this aircraft type
Origin: KVNY Van Nuys
United States
Destination: KSNA John Wayne-Orange Co
United States
More flights between these airports :: More routes between these airports
Route: LAX VPLVT VPLHP
File this flight plan on PilotEdge
Remarks: cat 10 rating try part 2
Altitude:
(Current/Filed)
5,500ft
Speed:
(Current/Filed)
110kts
Departed: 09-Feb-18 12:20 PM
Arrived: 09-Feb-18 01:11 PM
Distance/Time
Traveled:
44nm/0:51
Distance/Time
To Go:
Arrived

Flight Plot

Page will automatically refresh every two minutes.

Flight plan parsing failed; only flown route is shown


Map Options




Map Legend


Flown Route
Filed Route
Departure Airport
Arrival Airport
Navaid (VOR, NDB)
Fix

Horizontal Profiles

Position Reports

Time Latitude Longitude Heading Altitude Ground
Speed
09-Feb-18 12:18 34.197183 -118.490792 269 804ft 0kts
09-Feb-18 12:19 34.197129 -118.490830 165 804ft 4kts
09-Feb-18 12:20 34.197060 -118.490714 74 804ft 0kts
09-Feb-18 12:21 34.197060 -118.490714 74 804ft 0kts
09-Feb-18 12:22 34.199670 -118.490387 358 804ft 27kts
09-Feb-18 12:23 34.206851 -118.491241 356 804ft 24kts
09-Feb-18 12:24 34.213319 -118.491855 355 804ft 22kts
09-Feb-18 12:25 34.218540 -118.492250 41 804ft 6kts
09-Feb-18 12:26 34.218624 -118.492145 46 804ft 0kts
09-Feb-18 12:27 34.217475 -118.491090 173 804ft 42kts
09-Feb-18 12:28 34.198411 -118.487047 166 1216ft 77kts
09-Feb-18 12:29 34.178875 -118.492197 229 1806ft 79kts
09-Feb-18 12:30 34.164921 -118.512715 230 2385ft 79kts
09-Feb-18 12:31 34.151577 -118.534160 235 2929ft 80kts
09-Feb-18 12:32 34.132016 -118.533601 154 3430ft 81kts
09-Feb-18 12:33 34.112580 -118.522839 155 3888ft 81kts
09-Feb-18 12:34 34.092182 -118.520804 231 4334ft 81kts
09-Feb-18 12:35 34.079379 -118.543853 246 4704ft 88kts
09-Feb-18 12:36 34.069646 -118.576103 250 4709ft 109kts
09-Feb-18 12:37 34.061338 -118.611477 271 4708ft 110kts
09-Feb-18 12:38 34.062593 -118.648019 272 4708ft 108kts
09-Feb-18 12:39 34.062498 -118.683646 268 4708ft 108kts
09-Feb-18 12:40 34.061700 -118.719841 268 4708ft 108kts
09-Feb-18 12:41 34.066247 -118.753643 330 4704ft 104kts
09-Feb-18 12:42 34.092882 -118.754671 41 5104ft 103kts
09-Feb-18 12:43 34.112574 -118.727163 54 5408ft 115kts
09-Feb-18 12:44 34.123319 -118.692937 75 5408ft 106kts
09-Feb-18 12:45 34.128981 -118.659436 78 5408ft 99kts
09-Feb-18 12:46 34.132791 -118.626934 84 5408ft 97kts
09-Feb-18 12:47 34.135321 -118.594049 84 5408ft 98kts
09-Feb-18 12:48 34.137891 -118.560657 84 5408ft 100kts
09-Feb-18 12:49 34.132052 -118.531103 154 5407ft 99kts
09-Feb-18 12:50 34.106142 -118.517990 157 5409ft 108kts
09-Feb-18 12:51 34.076985 -118.503444 157 5408ft 115kts
09-Feb-18 12:52 34.047228 -118.488753 157 5408ft 116kts
09-Feb-18 12:53 34.017274 -118.474182 158 5408ft 116kts
09-Feb-18 12:54 33.987399 -118.459488 157 5408ft 116kts
09-Feb-18 12:55 33.957632 -118.444461 156 5408ft 116kts
09-Feb-18 12:56 33.928522 -118.427804 144 5408ft 116kts
09-Feb-18 12:57 33.902280 -118.405035 143 5408ft 116kts
09-Feb-18 12:58 33.876453 -118.382522 143 5408ft 115kts
09-Feb-18 12:59 33.850309 -118.359727 143 5408ft 115kts
09-Feb-18 13:00 33.824719 -118.337425 144 5408ft 115kts
09-Feb-18 13:01 33.798999 -118.315038 144 5445ft 114kts
09-Feb-18 13:02 33.773029 -118.292452 144 5445ft 115kts
09-Feb-18 13:03 33.747162 -118.269687 143 5445ft 114kts
09-Feb-18 13:04 33.721344 -118.247239 144 5445ft 114kts
09-Feb-18 13:05 33.695461 -118.224761 144 5445ft 114kts
09-Feb-18 13:06 33.671112 -118.200691 109 5441ft 114kts
09-Feb-18 13:07 33.680136 -118.164775 73 5445ft 114kts
09-Feb-18 13:08 33.687320 -118.131413 76 5443ft 92kts
09-Feb-18 13:09 33.693248 -118.101249 77 5069ft 101kts
09-Feb-18 13:10 33.699769 -118.067375 77 4092ft 110kts
09-Feb-18 13:11 33.706610 -118.031918 77 2677ft 109kts
09-Feb-18 13:12 33.713412 -117.996867 77 1495ft 104kts
09-Feb-18 13:13 33.720022 -117.965206 75 1445ft 101kts
09-Feb-18 13:14 33.719300 -117.931649 114 1442ft 97kts
09-Feb-18 13:15 33.713555 -117.901348 101 1250ft 88kts
09-Feb-18 13:16 33.704545 -117.874163 115 987ft 90kts
09-Feb-18 13:16 33.691917 -117.859302 191 389ft 87kts
09-Feb-18 13:18 33.675831 -117.869438 278 60ft 0kts
09-Feb-18 13:18 33.675652 -117.871083 269 60ft 13kts

Navigation Log

Ident Type
Flight plan parsing failed, navigation log unavailable